Time;durP1;ratioP1;P1;durP2;ratioP2;P2;SDS_P1;SDS_P2;PMS_P1;PMS_P2;Temp;Humidity;BMP_temperature;BMP_pressure;BME280_temperature;BME280_humidity;BME280_pressure;Samples;Min_cycle;Max_cycle;Signal;HPM_P1;HPM_P2
2023/04/03 00:01:20;;;;;;;;;;;;;;;16.67;51.56;100148.09;4999455;28;1107;-57
2023/04/03 00:03:45;;;;;;;;;;;;;;;15.97;53.16;100138.25;5031311;28;1131;-57
2023/04/03 00:06:11;;;;;;;;;;;;;;;15.70;53.70;100136.75;4999925;28;1981;-58
2023/04/03 00:08:37;;;;;;;;;;;;;;;15.56;53.97;100138.50;4999061;28;1228;-57
2023/04/03 00:11:03;;;;;;;;;;;;;;;15.42;53.83;100134.72;4999282;28;1120;-57
2023/04/03 00:13:29;;;;;;;;;;;;;;;16.13;53.28;100128.00;4999546;28;1092;-56
2023/04/03 00:15:54;;;;;;;;;;;;;;;17.19;50.35;100123.66;4999671;28;1180;-57
2023/04/03 00:18:20;;;;;;;;;;;;;;;16.21;52.87;100141.09;4998756;28;1049;-59
2023/04/03 00:20:46;;;;;;;;;;;;;;;15.81;53.54;100136.72;4998927;28;1135;-58
2023/04/03 00:23:11;;;;;;;;;;;;;;;15.63;53.70;100130.78;4999340;28;1056;-58
2023/04/03 00:25:37;;;;;;;;;;;;;;;15.47;53.96;100130.00;4999563;28;1969;-59
2023/04/03 00:28:02;;;;;;;;;;;;;;;15.34;54.07;100128.72;4998920;28;1207;-58
2023/04/03 00:30:28;;;;;;;;;;;;;;;16.58;52.31;100125.16;4999489;28;937;-58
2023/04/03 00:32:54;;;;;;;;;;;;;;;17.19;50.24;100117.38;4998929;28;1160;-60
2023/04/03 00:35:19;;;;;;;;;;;;;;;16.22;52.81;100136.44;4998952;28;1041;-59
2023/04/03 00:37:46;;;;;;;;;;;;;;;15.85;53.38;100129.56;4997585;28;1085;-60
2023/04/03 00:40:12;;;;;;;;;;;;;;;15.62;53.75;100126.38;4998255;28;1168;-59
2023/04/03 00:42:38;;;;;;;;;;;;;;;15.47;54.10;100126.47;4999022;28;1113;-58
2023/04/03 00:45:04;;;;;;;;;;;;;;;15.33;53.93;100132.56;4997392;28;1654;-58
2023/04/03 00:47:30;;;;;;;;;;;;;;;15.19;54.39;100128.78;4998916;28;1976;-59
2023/04/03 00:49:56;;;;;;;;;;;;;;;16.58;52.28;100130.63;5030866;28;1207;-59
2023/04/03 00:52:22;;;;;;;;;;;;;;;17.01;50.92;100125.28;4998573;28;1171;-57
2023/04/03 00:54:49;;;;;;;;;;;;;;;16.15;52.79;100131.28;5030443;28;1157;-57
2023/04/03 00:57:15;;;;;;;;;;;;;;;15.78;53.65;100126.28;5023579;28;1122;-57
2023/04/03 00:59:44;;;;;;;;;;;;;;;15.47;53.82;100108.09;4990622;28;1049;-59
2023/04/03 01:02:10;;;;;;;;;;;;;;;15.42;54.06;100129.22;4998829;28;1196;-58
2023/04/03 01:04:36;;;;;;;;;;;;;;;15.62;54.00;100126.38;4998773;28;1132;-58
2023/04/03 01:07:15;;;;;;;;;;;;;;;17.07;50.69;100115.84;4997330;28;1902;-59
2023/04/03 01:09:41;;;;;;;;;;;;;;;16.19;52.93;100112.34;4998286;28;1149;-57
2023/04/03 01:12:16;;;;;;;;;;;;;;;15.75;53.59;100113.97;4998737;28;1025;-56
2023/04/03 01:14:41;;;;;;;;;;;;;;;15.59;53.81;100104.22;4997195;28;1582;-58
2023/04/03 01:17:45;;;;;;;;;;;;;;;15.46;53.83;100103.75;4998856;28;1128;-59
2023/04/03 01:20:11;;;;;;;;;;;;;;;16.99;51.08;100100.03;4995490;28;1211;-58
2023/04/03 01:22:43;;;;;;;;;;;;;;;16.84;51.11;100100.16;4995903;28;978;-58
2023/04/03 01:25:09;;;;;;;;;;;;;;;16.06;53.11;100100.91;4987123;28;1167;-57
2023/04/03 01:27:34;;;;;;;;;;;;;;;15.81;53.40;100101.06;4997887;28;1975;-59
2023/04/03 01:30:00;;;;;;;;;;;;;;;15.60;53.75;100101.19;4996543;28;1084;-59
2023/04/03 01:32:27;;;;;;;;;;;;;;;15.46;54.08;100100.16;4996281;28;1046;-57
2023/04/03 01:34:52;;;;;;;;;;;;;;;15.31;53.90;100103.81;4997860;28;958;-58
2023/04/03 01:37:18;;;;;;;;;;;;;;;16.29;52.84;100100.44;4998179;28;1130;-59
2023/04/03 01:39:43;;;;;;;;;;;;;;;17.12;50.68;100100.44;4998131;28;1005;-58
2023/04/03 01:42:10;;;;;;;;;;;;;;;16.20;52.79;100103.81;4996662;28;1145;-58
2023/04/03 01:44:39;;;;;;;;;;;;;;;15.84;53.64;100114.25;4997751;28;1228;-59
2023/04/03 01:47:05;;;;;;;;;;;;;;;15.61;53.85;100122.00;4996152;28;1898;-58
2023/04/03 01:49:31;;;;;;;;;;;;;;;15.45;53.83;100124.00;4997711;28;1180;-58
2023/04/03 01:51:57;;;;;;;;;;;;;;;15.68;53.91;100127.19;4995502;28;1394;-59
2023/04/03 01:54:22;;;;;;;;;;;;;;;17.13;50.68;100124.03;4997893;28;1196;-59
2023/04/03 01:56:48;;;;;;;;;;;;;;;16.36;52.33;100133.84;4997656;28;1075;-58
2023/04/03 01:59:16;;;;;;;;;;;;;;;15.92;53.49;100135.53;4996080;28;1288;-58
2023/04/03 02:01:45;;;;;;;;;;;;;;;15.67;53.91;100134.59;4996000;28;1269;-58
2023/04/03 02:04:11;;;;;;;;;;;;;;;15.48;53.80;100141.81;4996158;28;1303;-58
2023/04/03 02:06:37;;;;;;;;;;;;;;;15.38;53.89;100146.22;4997377;28;1914;-58
2023/04/03 02:09:03;;;;;;;;;;;;;;;16.83;51.31;100153.44;4997184;28;1049;-59
2023/04/03 02:11:29;;;;;;;;;;;;;;;16.75;51.29;100158.47;4997579;28;1093;-60
2023/04/03 02:13:55;;;;;;;;;;;;;;;16.01;53.13;100153.03;4997381;28;1151;-58
2023/04/03 02:16:21;;;;;;;;;;;;;;;15.74;53.72;100151.53;4995690;28;1181;-59
2023/04/03 02:18:48;;;;;;;;;;;;;;;15.55;53.87;100161.50;4997379;28;1064;-57
2023/04/03 02:21:14;;;;;;;;;;;;;;;15.43;54.01;100166.50;4996951;28;1107;-57
2023/04/03 02:23:39;;;;;;;;;;;;;;;15.31;53.86;100153.94;4997038;28;1053;-58
2023/04/03 02:26:06;;;;;;;;;;;;;;;16.23;52.74;100157.28;4997137;28;1902;-58
2023/04/03 02:28:32;;;;;;;;;;;;;;;17.01;50.89;100152.75;4996826;28;1068;-59
2023/04/03 02:30:57;;;;;;;;;;;;;;;16.06;53.10;100152.19;4996848;28;1160;-59
2023/04/03 02:33:23;;;;;;;;;;;;;;;15.73;53.67;100152.63;4995684;28;1045;-58
2023/04/03 02:35:53;;;;;;;;;;;;;;;15.53;54.05;100167.28;4995706;28;1163;-59
2023/04/03 02:38:20;;;;;;;;;;;;;;;15.33;54.18;100159.97;4995829;28;1285;-60
2023/04/03 02:40:47;;;;;;;;;;;;;;;15.25;54.14;100156.97;5028386;28;1163;-59
2023/04/03 02:43:13;;;;;;;;;;;;;;;16.50;52.28;100166.94;4995690;28;1445;-61
2023/04/03 02:45:39;;;;;;;;;;;;;;;17.14;50.18;100156.72;4994841;28;1902;-58
2023/04/03 02:48:05;;;;;;;;;;;;;;;16.17;52.72;100163.91;4995529;28;1326;-59
2023/04/03 02:50:31;;;;;;;;;;;;;;;15.82;53.51;100158.38;4996914;28;1216;-59
2023/04/03 02:52:57;;;;;;;;;;;;;;;15.61;53.83;100171.31;4995774;28;1144;-60
2023/04/03 02:55:22;;;;;;;;;;;;;;;15.45;53.95;100167.03;4995556;28;1476;-57
2023/04/03 02:57:51;;;;;;;;;;;;;;;15.28;54.06;100170.94;4995091;28;1277;-59
2023/04/03 03:00:17;;;;;;;;;;;;;;;15.77;53.75;100176.72;4995835;28;1226;-60
2023/04/03 03:02:43;;;;;;;;;;;;;;;17.15;50.67;100176.75;4996861;28;1100;-60
2023/04/03 03:05:08;;;;;;;;;;;;;;;16.52;52.18;100172.94;4999311;28;1087;-58
2023/04/03 03:07:34;;;;;;;;;;;;;;;15.94;53.29;100174.47;5000759;28;1989;-61
2023/04/03 03:10:00;;;;;;;;;;;;;;;15.65;53.97;100180.63;4999250;28;1107;-62
2023/04/03 03:12:26;;;;;;;;;;;;;;;15.52;54.05;100186.75;5000635;28;1111;-57
2023/04/03 03:14:51;;;;;;;;;;;;;;;15.41;53.86;100185.94;4999472;28;1263;-57
2023/04/03 03:17:17;;;;;;;;;;;;;;;15.25;54.11;100187.94;5000689;28;1149;-61
2023/04/03 03:19:42;;;;;;;;;;;;;;;15.94;53.46;100184.63;5000668;28;1160;-60
2023/04/03 03:22:08;;;;;;;;;;;;;;;17.21;50.47;100189.34;5000227;28;1084;-63
2023/04/03 03:24:34;;;;;;;;;;;;;;;16.32;52.34;100185.72;4999153;28;1103;-64
2023/04/03 03:26:59;;;;;;;;;;;;;;;15.85;53.39;100195.34;5000155;28;1981;-57
2023/04/03 03:29:25;;;;;;;;;;;;;;;15.66;53.86;100198.72;4998948;28;1143;-65
2023/04/03 03:31:51;;;;;;;;;;;;;;;15.45;54.04;100203.47;4999183;28;1263;-64
2023/04/03 03:34:17;;;;;;;;;;;;;;;15.31;54.33;100200.50;4999849;28;1048;-65
2023/04/03 03:36:43;;;;;;;;;;;;;;;15.19;54.29;100209.03;4999907;28;1160;-61
2023/04/03 03:39:09;;;;;;;;;;;;;;;16.67;51.72;100222.22;5000163;28;1107;-61
2023/04/03 03:41:35;;;;;;;;;;;;;;;16.68;51.42;100223.06;5015198;28;1489;-60
2023/04/03 03:44:01;;;;;;;;;;;;;;;15.95;53.27;100222.75;4998943;28;1219;-62
2023/04/03 03:46:28;;;;;;;;;;;;;;;15.64;53.95;100224.75;4998027;28;1902;-63
2023/04/03 03:48:54;;;;;;;;;;;;;;;15.43;54.07;100221.28;4998840;28;1233;-63
2023/04/03 03:51:19;;;;;;;;;;;;;;;15.30;54.21;100233.66;4998438;28;1159;-61
2023/04/03 03:53:45;;;;;;;;;;;;;;;15.29;54.23;100235.59;5031620;28;1241;-63
2023/04/03 03:56:14;;;;;;;;;;;;;;;16.82;51.51;100243.25;4999426;28;1113;-61
2023/04/03 03:58:40;;;;;;;;;;;;;;;16.86;51.22;100243.50;4998258;28;1292;-58
2023/04/03 04:01:07;;;;;;;;;;;;;;;16.05;52.89;100232.84;4989985;28;1296;-65
2023/04/03 04:03:38;;;;;;;;;;;;;;;15.73;53.63;100242.28;4986747;28;1214;-61
2023/04/03 04:06:04;;;;;;;;;;;;;;;15.51;54.23;100237.97;5031128;28;1902;-62
2023/04/03 04:08:30;;;;;;;;;;;;;;;15.40;54.06;100250.91;4998566;28;1401;-62
2023/04/03 04:10:56;;;;;;;;;;;;;;;15.27;54.41;100250.66;4999240;28;1045;-62
2023/04/03 04:13:22;;;;;;;;;;;;;;;15.18;54.44;100253.94;4999290;28;1306;-62
2023/04/03 04:15:48;;;;;;;;;;;;;;;16.66;52.07;100255.44;5013913;28;1151;-63
2023/04/03 04:18:15;;;;;;;;;;;;;;;16.30;52.44;100251.06;4997921;28;1136;-63
2023/04/03 04:20:44;;;;;;;;;;;;;;;15.73;53.90;100237.59;4998377;28;1149;-63
2023/04/03 04:23:10;;;;;;;;;;;;;;;15.52;54.06;100247.84;5030673;28;1176;-63
2023/04/03 04:25:37;;;;;;;;;;;;;;;15.36;54.37;100252.53;4998426;28;1914;-61
2023/04/03 04:28:04;;;;;;;;;;;;;;;15.35;54.47;100248.16;4997855;28;1169;-63
2023/04/03 04:30:30;;;;;;;;;;;;;;;16.85;51.51;100255.59;4998171;28;1335;-62
2023/04/03 04:32:57;;;;;;;;;;;;;;;16.36;52.27;100251.84;4998064;28;1168;-63
2023/04/03 04:35:23;;;;;;;;;;;;;;;15.81;53.50;100236.25;4997436;28;1391;-61
2023/04/03 04:37:50;;;;;;;;;;;;;;;15.55;54.24;100238.22;4997744;28;1376;-61
2023/04/03 04:40:17;;;;;;;;;;;;;;;15.37;54.44;100256.91;4998020;28;1246;-60
2023/04/03 04:42:43;;;;;;;;;;;;;;;15.28;54.21;100252.28;4997699;28;1150;-61
2023/04/03 04:45:09;;;;;;;;;;;;;;;15.18;54.48;100240.25;4997428;28;1200;-60
2023/04/03 04:47:36;;;;;;;;;;;;;;;16.17;52.92;100247.03;5023757;28;1910;-60
2023/04/03 04:50:03;;;;;;;;;;;;;;;17.22;50.08;100243.16;4978260;28;1509;-59
2023/04/03 04:52:30;;;;;;;;;;;;;;;16.17;52.58;100246.19;4984669;28;1480;-60
2023/04/03 04:54:56;;;;;;;;;;;;;;;15.80;53.47;100247.50;4998692;28;1048;-60
2023/04/03 04:57:22;;;;;;;;;;;;;;;15.57;53.81;100239.59;4997580;28;1169;-60
2023/04/03 04:59:48;;;;;;;;;;;;;;;15.41;54.03;100240.75;4997054;28;1314;-62
2023/04/03 05:02:15;;;;;;;;;;;;;;;15.46;54.42;100227.03;4997108;28;1056;-62
2023/04/03 05:04:42;;;;;;;;;;;;;;;16.96;50.81;100235.19;4996897;28;2126;-61
2023/04/03 05:07:14;;;;;;;;;;;;;;;16.13;52.92;100237.72;4998328;28;1903;-63
2023/04/03 05:09:42;;;;;;;;;;;;;;;17.18;50.50;100247.59;4998613;28;1275;-61
2023/04/03 05:12:08;;;;;;;;;;;;;;;16.07;52.18;100247.91;4995808;28;1299;-61
2023/04/03 05:14:40;;;;;;;;;;;;;;;17.21;50.90;100239.59;5028753;28;1233;-62
2023/04/03 05:17:07;;;;;;;;;;;;;;;16.87;51.00;100251.44;5029195;28;1272;-57
2023/04/03 05:19:36;;;;;;;;;;;;;;;16.19;51.00;100244.00;4996310;28;1119;-57
2023/04/03 05:22:05;;;;;;;;;;;;;;;15.95;49.75;100233.72;4996941;28;1209;-57
2023/04/03 05:24:30;;;;;;;;;;;;;;;16.73;51.04;100232.06;4998363;28;1164;-62
2023/04/03 05:26:56;;;;;;;;;;;;;;;16.05;50.73;100238.31;4998049;28;1898;-62
2023/04/03 05:29:22;;;;;;;;;;;;;;;15.99;50.62;100236.69;4997261;28;1222;-60
2023/04/03 05:31:49;;;;;;;;;;;;;;;16.84;51.28;100243.75;4997025;28;1249;-58
2023/04/03 05:34:16;;;;;;;;;;;;;;;16.73;51.81;100254.03;4996540;28;1262;-61
2023/04/03 05:36:42;;;;;;;;;;;;;;;18.24;48.89;100251.28;4996347;28;1147;-60
2023/04/03 05:39:09;;;;;;;;;;;;;;;17.16;50.60;100249.84;4996806;28;1200;-57
2023/04/03 05:41:38;;;;;;;;;;;;;;;16.58;49.92;100256.91;4996769;28;1289;-63
2023/04/03 05:44:04;;;;;;;;;;;;;;;17.33;50.67;100272.16;5012739;28;1380;-62
2023/04/03 05:46:30;;;;;;;;;;;;;;;16.56;50.63;100270.06;4996077;28;1952;-61
2023/04/03 05:48:58;;;;;;;;;;;;;;;16.17;49.80;100274.47;4996194;28;1158;-62
2023/04/03 05:51:29;;;;;;;;;;;;;;;16.81;50.99;100271.81;4996728;28;1154;-59
2023/04/03 05:54:03;;;;;;;;;;;;;;;16.33;49.98;100272.44;4996340;28;1235;-63
2023/04/03 05:56:29;;;;;;;;;;;;;;;18.05;49.42;100276.06;5012629;28;1245;-60
2023/04/03 05:58:56;;;;;;;;;;;;;;;16.98;50.51;100284.34;4996180;28;1313;-61
2023/04/03 06:01:23;;;;;;;;;;;;;;;16.48;49.77;100278.91;4996437;28;1236;-63
2023/04/03 06:03:49;;;;;;;;;;;;;;;16.38;48.89;100286.13;4997666;28;1089;-60
2023/04/03 06:06:16;;;;;;;;;;;;;;;17.24;50.46;100285.72;4997644;28;1902;-61
2023/04/03 06:08:43;;;;;;;;;;;;;;;16.75;50.18;100276.50;4999735;28;1167;-62
2023/04/03 06:11:10;;;;;;;;;;;;;;;17.37;50.44;100284.22;4997514;28;1090;-61
2023/04/03 06:13:37;;;;;;;;;;;;;;;17.82;49.56;100285.94;4997318;28;1151;-62
2023/04/03 06:16:03;;;;;;;;;;;;;;;16.85;50.25;100280.28;4993089;28;1076;-64
2023/04/03 06:18:29;;;;;;;;;;;;;;;16.58;49.44;100276.13;4978183;28;1311;-62
2023/04/03 06:20:55;;;;;;;;;;;;;;;16.42;48.56;100272.63;4994113;28;1358;-59
2023/04/03 06:23:21;;;;;;;;;;;;;;;16.83;50.24;100274.25;4996691;28;1048;-61
2023/04/03 06:25:46;;;;;;;;;;;;;;;16.49;49.25;100280.56;4997137;28;1902;-62
2023/04/03 06:28:12;;;;;;;;;;;;;;;17.49;49.69;100285.75;4996280;28;1044;-61
2023/04/03 06:30:38;;;;;;;;;;;;;;;16.71;49.98;100289.19;4996315;28;1271;-58
2023/04/03 06:33:03;;;;;;;;;;;;;;;16.49;49.09;100297.84;5028558;28;1075;-60
2023/04/03 06:35:30;;;;;;;;;;;;;;;16.31;48.00;100296.56;4996989;28;1060;-55
2023/04/03 06:37:55;;;;;;;;;;;;;;;17.18;49.70;100297.88;4983924;28;1033;-57
2023/04/03 06:40:22;;;;;;;;;;;;;;;16.84;49.91;100297.88;4997069;28;1140;-59
2023/04/03 06:42:47;;;;;;;;;;;;;;;16.42;49.40;100317.38;4984499;28;1045;-61
2023/04/03 06:45:13;;;;;;;;;;;;;;;16.39;48.21;100317.94;4995664;28;1153;-60
2023/04/03 06:47:39;;;;;;;;;;;;;;;17.29;49.44;100337.06;4983723;28;1922;-61
2023/04/03 06:50:06;;;;;;;;;;;;;;;16.67;49.53;100331.22;4996609;28;1098;-60
2023/04/03 06:52:31;;;;;;;;;;;;;;;16.63;49.76;100339.19;4996759;28;1123;-59
2023/04/03 06:54:59;;;;;;;;;;;;;;;17.23;49.77;100351.97;4996696;28;1001;-61
2023/04/03 06:57:24;;;;;;;;;;;;;;;16.67;49.23;100354.00;4996524;28;1088;-57
2023/04/03 06:59:51;;;;;;;;;;;;;;;16.45;48.42;100348.09;4996203;28;1474;-59
2023/04/03 07:02:16;;;;;;;;;;;;;;;16.33;48.24;100343.78;4996150;28;1188;-61
2023/04/03 07:04:42;;;;;;;;;;;;;;;17.08;49.44;100345.50;4996240;28;1450;-60
2023/04/03 07:07:08;;;;;;;;;;;;;;;16.56;49.12;100335.94;4996399;28;1918;-62
2023/04/03 07:09:33;;;;;;;;;;;;;;;17.21;49.58;100345.94;4996648;28;1129;-59
2023/04/03 07:11:59;;;;;;;;;;;;;;;16.90;49.56;100346.16;4996109;28;1160;-57
2023/04/03 07:14:24;;;;;;;;;;;;;;;16.53;48.69;100358.47;4996153;28;1111;-59
2023/04/03 07:16:50;;;;;;;;;;;;;;;16.31;48.27;100356.13;4996457;28;1220;-57
2023/04/03 07:19:18;;;;;;;;;;;;;;;17.09;49.23;100354.56;4996607;28;1120;-61
2023/04/03 07:21:44;;;;;;;;;;;;;;;16.53;49.00;100350.25;4996583;28;1136;-58
2023/04/03 07:24:10;;;;;;;;;;;;;;;16.39;48.36;100352.78;4996182;28;1228;-59
2023/04/03 07:26:36;;;;;;;;;;;;;;;17.07;48.94;100346.59;4996094;28;1975;-59
2023/04/03 07:29:01;;;;;;;;;;;;;;;16.50;49.04;100359.06;4996378;28;1048;-59
2023/04/03 07:31:27;;;;;;;;;;;;;;;16.30;47.99;100333.38;4996226;28;1092;-53
2023/04/03 07:33:53;;;;;;;;;;;;;;;17.32;48.55;100352.16;4996398;28;1001;-59
2023/04/03 07:36:19;;;;;;;;;;;;;;;16.65;48.81;100353.47;4996240;28;1151;-60
2023/04/03 07:38:45;;;;;;;;;;;;;;;16.42;48.12;100346.72;4995920;28;1132;-59
2023/04/03 07:41:12;;;;;;;;;;;;;;;17.86;48.23;100355.75;4995962;28;1121;-59
2023/04/03 07:43:38;;;;;;;;;;;;;;;16.85;49.25;100371.72;5027042;28;1143;-58
2023/04/03 07:46:04;;;;;;;;;;;;;;;16.52;48.37;100370.56;4995952;28;1906;-61
2023/04/03 07:48:30;;;;;;;;;;;;;;;17.74;48.26;100381.72;4995887;28;1091;-57
2023/04/03 07:50:59;;;;;;;;;;;;;;;16.90;49.13;100373.63;4998273;28;1110;-58
2023/04/03 07:53:25;;;;;;;;;;;;;;;16.50;48.23;100386.50;4999689;28;1144;-56
2023/04/03 07:55:55;;;;;;;;;;;;;;;17.50;48.53;100380.84;4999940;28;1184;-60
2023/04/03 07:58:20;;;;;;;;;;;;;;;16.71;48.78;100389.94;4999418;28;1068;-58
2023/04/03 08:00:46;;;;;;;;;;;;;;;17.64;48.61;100392.81;4999476;28;1048;-58
2023/04/03 08:03:12;;;;;;;;;;;;;;;17.61;48.69;100388.72;4999186;28;1033;-59
2023/04/03 08:05:38;;;;;;;;;;;;;;;16.87;48.96;100387.91;4999668;28;902;-59
2023/04/03 08:08:04;;;;;;;;;;;;;;;16.67;48.19;100383.38;5000092;28;1144;-60
2023/04/03 08:10:30;;;;;;;;;;;;;;;16.57;47.55;100370.53;4999437;28;1121;-58
2023/04/03 08:12:56;;;;;;;;;;;;;;;17.43;48.65;100386.69;4999309;28;1191;-58
2023/04/03 08:15:21;;;;;;;;;;;;;;;16.74;49.21;100381.94;4999461;28;1171;-59
2023/04/03 08:17:47;;;;;;;;;;;;;;;16.50;48.37;100389.25;4999549;28;1056;-57
2023/04/03 08:20:13;;;;;;;;;;;;;;;17.53;48.48;100381.09;4999412;28;1126;-56
2023/04/03 08:22:38;;;;;;;;;;;;;;;16.81;49.00;100394.56;4999358;28;1084;-56
2023/04/03 08:25:04;;;;;;;;;;;;;;;17.30;49.11;100396.41;4998912;28;1227;-57
2023/04/03 08:27:30;;;;;;;;;;;;;;;17.06;49.39;100388.91;4999749;28;1906;-56
2023/04/03 08:29:56;;;;;;;;;;;;;;;16.74;48.71;100392.94;4999576;28;1060;-61
2023/04/03 08:32:22;;;;;;;;;;;;;;;17.50;48.91;100397.34;4999029;28;1166;-62
2023/04/03 08:34:48;;;;;;;;;;;;;;;17.01;49.28;100388.97;4999215;28;1071;-62
2023/04/03 08:37:15;;;;;;;;;;;;;;;16.75;48.45;100383.59;4999284;28;1099;-62
2023/04/03 08:39:41;;;;;;;;;;;;;;;17.33;48.73;100379.34;4999084;28;1071;-62
2023/04/03 08:42:19;;;;;;;;;;;;;;;16.90;48.71;100374.47;4998805;28;1139;-62
2023/04/03 08:45:08;;;;;;;;;;;;;;;16.56;48.26;100382.63;4998647;28;1109;-61
2023/04/03 08:47:36;;;;;;;;;;;;;;;16.77;48.59;100384.16;4998509;28;1898;-60
2023/04/03 08:50:04;;;;;;;;;;;;;;;16.88;48.68;100384.91;4998469;28;985;-60
2023/04/03 08:52:42;;;;;;;;;;;;;;;16.57;47.92;100381.50;4999115;28;974;-58
2023/04/03 08:55:27;;;;;;;;;;;;;;;16.41;47.08;100383.50;5030161;28;1068;-58
2023/04/03 08:58:02;;;;;;;;;;;;;;;16.22;46.64;100380.59;4998965;28;1060;-58
2023/04/03 09:00:30;;;;;;;;;;;;;;;17.24;47.54;100389.34;4998183;28;1084;-58
2023/04/03 09:02:56;;;;;;;;;;;;;;;16.55;48.18;100384.53;4997156;28;1185;-58
2023/04/03 09:05:48;;;;;;;;;;;;;;;16.81;48.43;100380.81;4997416;28;1157;-57
2023/04/03 09:08:18;;;;;;;;;;;;;;;16.89;48.47;100378.31;4997783;28;1433;-58
2023/04/03 09:10:43;;;;;;;;;;;;;;;16.50;48.07;100370.84;4997653;28;1131;-57
2023/04/03 09:13:27;;;;;;;;;;;;;;;17.26;48.27;100376.94;4996721;28;1100;-59
2023/04/03 09:15:53;;;;;;;;;;;;;;;16.54;48.54;100366.44;5029128;28;1124;-61
2023/04/03 09:18:39;;;;;;;;;;;;;;;16.46;47.78;100374.44;4998277;28;1131;-59
2023/04/03 09:21:05;;;;;;;;;;;;;;;17.30;48.08;100366.19;5029379;28;1076;-59
2023/04/03 09:23:40;;;;;;;;;;;;;;;16.61;48.55;100371.63;4998019;28;1048;-59
2023/04/03 09:26:07;;;;;;;;;;;;;;;17.54;47.64;100365.41;4998032;28;1914;-57
2023/04/03 09:28:35;;;;;;;;;;;;;;;17.50;48.45;100375.34;5029919;28;1203;-59
2023/04/03 09:31:00;;;;;;;;;;;;;;;16.75;48.73;100367.13;5013152;28;1083;-58
2023/04/03 09:33:26;;;;;;;;;;;;;;;16.62;47.87;100365.03;4978855;28;1152;-60
2023/04/03 09:35:51;;;;;;;;;;;;;;;17.43;48.26;100362.78;4993772;28;1165;-62
2023/04/03 09:38:18;;;;;;;;;;;;;;;16.87;48.81;100363.19;4997832;28;906;-61
2023/04/03 09:40:46;;;;;;;;;;;;;;;18.23;47.40;100368.81;4997971;28;1228;-60
2023/04/03 09:43:24;;;;;;;;;;;;;;;18.26;47.83;100368.22;5029520;28;1107;-60
2023/04/03 09:45:50;;;;;;;;;;;;;;;17.26;48.57;100368.72;4997607;28;1967;-62
2023/04/03 09:48:20;;;;;;;;;;;;;;;16.99;48.04;100366.44;5029280;28;1028;-60
2023/04/03 09:50:56;;;;;;;;;;;;;;;16.85;47.22;100377.22;4997738;28;903;-63
2023/04/03 09:53:35;;;;;;;;;;;;;;;16.65;46.81;100367.19;4984753;28;1097;-61
2023/04/03 09:56:03;;;;;;;;;;;;;;;17.20;48.58;100371.78;4997920;28;1017;-62
2023/04/03 09:58:29;;;;;;;;;;;;;;;16.85;47.98;100370.91;4983795;28;1124;-61
2023/04/03 10:00:55;;;;;;;;;;;;;;;16.64;47.07;100368.28;4997297;28;1053;-63
2023/04/03 10:03:31;;;;;;;;;;;;;;;17.30;48.19;100376.38;4996703;28;1439;-62
2023/04/03 10:05:57;;;;;;;;;;;;;;;16.73;47.92;100383.06;4996137;28;1898;-62
2023/04/03 10:08:23;;;;;;;;;;;;;;;16.49;47.40;100376.63;4996875;28;1056;-62
2023/04/03 10:11:04;;;;;;;;;;;;;;;16.86;47.55;100369.81;4997707;28;1053;-63
2023/04/03 10:13:30;;;;;;;;;;;;;;;17.04;48.41;100384.78;4996175;28;1202;-62
2023/04/03 10:15:56;;;;;;;;;;;;;;;16.62;48.15;100383.41;4997224;28;1203;-58
2023/04/03 10:18:28;;;;;;;;;;;;;;;16.45;47.13;100376.34;5028609;28;1083;-57
2023/04/03 10:20:53;;;;;;;;;;;;;;;17.33;48.44;100376.59;5028742;28;1000;-58
2023/04/03 10:23:20;;;;;;;;;;;;;;;16.84;48.72;100378.31;4997210;28;1061;-57
2023/04/03 10:25:58;;;;;;;;;;;;;;;17.20;48.78;100383.59;4996113;28;1915;-58
2023/04/03 10:28:47;;;;;;;;;;;;;;;16.92;48.84;100390.66;4997133;28;1295;-57
2023/04/03 10:31:31;;;;;;;;;;;;;;;16.61;47.81;100374.34;4996026;28;1171;-57
2023/04/03 10:33:56;;;;;;;;;;;;;;;17.07;48.39;100360.34;4996958;28;1180;-57
2023/04/03 10:36:25;;;;;;;;;;;;;;;16.97;48.75;100363.16;4996946;28;1136;-54
2023/04/03 10:39:11;;;;;;;;;;;;;;;16.57;48.20;100365.03;5027909;28;931;-58
2023/04/03 10:41:40;;;;;;;;;;;;;;;17.69;47.92;100365.25;4995745;28;1065;-57
2023/04/03 10:44:24;;;;;;;;;;;;;;;17.03;48.86;100366.69;4986149;28;1180;-64
2023/04/03 10:46:52;;;;;;;;;;;;;;;16.70;47.82;100356.16;4996836;28;1918;-56
2023/04/03 10:49:21;;;;;;;;;;;;;;;16.52;47.27;100348.59;5014407;28;1271;-55
2023/04/03 10:51:47;;;;;;;;;;;;;;;17.14;48.20;100359.19;4981191;28;1219;-56
2023/04/03 10:54:18;;;;;;;;;;;;;;;16.59;48.32;100352.69;4976056;28;1224;-57
2023/04/03 10:56:44;;;;;;;;;;;;;;;17.79;47.73;100356.94;4986941;28;1137;-55
2023/04/03 10:59:27;;;;;;;;;;;;;;;17.06;48.93;100349.63;4989482;28;1204;-54
2023/04/03 11:01:57;;;;;;;;;;;;;;;16.74;48.12;100343.50;4985183;28;1077;-58
2023/04/03 11:04:24;;;;;;;;;;;;;;;16.51;47.47;100338.72;4992405;28;1436;-56
2023/04/03 11:06:51;;;;;;;;;;;;;;;17.20;47.93;100344.31;5011794;28;1968;-55
2023/04/03 11:09:27;;;;;;;;;;;;;;;17.03;48.71;100334.53;4996564;28;1192;-55
2023/04/03 11:11:57;;;;;;;;;;;;;;;16.63;47.81;100341.94;4975929;28;1172;-57
2023/04/03 11:14:22;;;;;;;;;;;;;;;17.82;47.91;100339.00;4994232;28;1052;-55
2023/04/03 11:16:49;;;;;;;;;;;;;;;16.90;48.73;100354.41;4996680;28;1231;-55
2023/04/03 11:19:21;;;;;;;;;;;;;;;16.75;47.59;100342.41;5027596;28;1530;-54
2023/04/03 11:21:52;;;;;;;;;;;;;;;17.74;48.19;100350.63;5011471;28;1291;-54
2023/04/03 11:24:25;;;;;;;;;;;;;;;16.96;48.46;100356.03;4985136;28;1121;-55
2023/04/03 11:26:51;;;;;;;;;;;;;;;16.93;48.64;100357.41;4991478;28;1959;-62
2023/04/03 11:29:21;;;;;;;;;;;;;;;17.16;48.75;100341.31;4993930;28;1231;-55
2023/04/03 11:31:53;;;;;;;;;;;;;;;16.80;48.14;100332.50;4980932;28;1029;-50
2023/04/03 11:34:43;;;;;;;;;;;;;;;16.58;47.54;100339.25;5000467;28;1119;-47
2023/04/03 11:37:13;;;;;;;;;;;;;;;17.73;47.68;100357.25;4999701;28;1410;-53
2023/04/03 11:39:39;;;;;;;;;;;;;;;16.88;48.19;100359.34;4999942;28;1058;-52
2023/04/03 11:42:15;;;;;;;;;;;;;;;16.69;47.37;100342.72;5000150;28;1160;-55
2023/04/03 11:44:41;;;;;;;;;;;;;;;16.46;47.00;100349.75;4999533;28;1120;-55
2023/04/03 11:47:07;;;;;;;;;;;;;;;17.57;47.79;100348.34;5031590;28;1906;-55
2023/04/03 11:49:56;;;;;;;;;;;;;;;16.80;48.09;100354.47;5031517;28;1080;-56
2023/04/03 11:52:40;;;;;;;;;;;;;;;17.60;45.82;100356.84;4983736;28;1448;-56
2023/04/03 11:55:21;;;;;;;;;;;;;;;18.18;46.03;100359.81;4983526;28;1025;-56
2023/04/03 11:58:02;;;;;;;;;;;;;;;17.08;47.80;100356.50;4995706;28;1204;-57
2023/04/03 12:00:46;;;;;;;;;;;;;;;16.95;46.90;100359.06;4990890;28;1271;-53
2023/04/03 12:03:26;;;;;;;;;;;;;;;16.89;47.38;100358.28;4987302;28;923;-55
2023/04/03 12:06:04;;;;;;;;;;;;;;;17.01;47.94;100350.50;4988391;28;1894;-56
2023/04/03 12:08:33;;;;;;;;;;;;;;;16.73;47.28;100366.59;4990161;28;1092;-57
2023/04/03 12:11:10;;;;;;;;;;;;;;;17.73;47.20;100354.50;4993118;28;1184;-55
2023/04/03 12:13:36;;;;;;;;;;;;;;;16.87;47.82;100353.06;4996168;28;1322;-54
2023/04/03 12:16:03;;;;;;;;;;;;;;;17.09;48.26;100349.88;4999254;28;934;-58
2023/04/03 12:18:41;;;;;;;;;;;;;;;17.20;47.97;100347.06;4999224;28;1172;-57
2023/04/03 12:21:07;;;;;;;;;;;;;;;16.86;47.48;100347.84;4999748;28;1056;-56
2023/04/03 12:23:33;;;;;;;;;;;;;;;17.41;47.81;100343.00;4986089;28;1128;-60
2023/04/03 12:26:00;;;;;;;;;;;;;;;17.03;48.15;100329.06;4983108;28;1902;-58
2023/04/03 12:28:25;;;;;;;;;;;;;;;17.04;48.19;100330.69;4999166;28;1199;-57
2023/04/03 12:30:51;;;;;;;;;;;;;;;18.51;46.46;100326.84;5028161;28;1391;-59
2023/04/03 12:33:23;;;;;;;;;;;;;;;19.45;44.34;100323.16;5026906;28;1800;-59
2023/04/03 12:35:54;;;;;;;;;;;;;;;17.86;47.56;100325.50;4998338;28;1141;-57
2023/04/03 12:38:24;;;;;;;;;;;;;;;17.40;47.45;100319.38;4999116;28;1210;-58
2023/04/03 12:40:49;;;;;;;;;;;;;;;17.09;47.08;100316.91;4991044;28;1180;-59
2023/04/03 12:43:24;;;;;;;;;;;;;;;16.91;46.60;100309.38;4998977;28;1246;-57
2023/04/03 12:45:51;;;;;;;;;;;;;;;16.72;46.11;100296.31;4998900;28;1963;-55
2023/04/03 12:48:19;;;;;;;;;;;;;;;17.51;47.66;100294.53;5030024;28;961;-56
2023/04/03 12:50:47;;;;;;;;;;;;;;;16.96;47.70;100298.34;5030277;28;1515;-54
2023/04/03 12:53:14;;;;;;;;;;;;;;;16.84;47.00;100286.88;4997402;28;1197;-58